PWSweather.com
Personal Weather Stations
Station Observations

Sandy BrookColebrook, CT 06021

Lat: 42.0018, Lon: -73.0825

Elevation: 935

Station Type: Davis Vantage Pro2 + Solar + UV

http://www.wunderground.com/weatherstation/WXDailyHistory.asp?ID=KCTCOLEB1

Latest ConditionsUpdated 4:50:00 PM EDT Sunday, Apr 20, 2014
Currently Today's Max Today's Min Today's Average
Temperature 57.0°F13.9°C 58.7°F14.8°C 28.0°F-2.2°C 41.1°F5.1°C
Dew Point 22.4°F-5.3°C 31.5°F-0.3°C 15.2°F-9.3°C 24.6°F-4.1°C
Winds 1.8 mph WSW2.9 kmh WSW 3.9 mph W6.3 kmh W - 0.9 mph 1.4 kmh
Wind Gusts 4.0 mph6.4 kmh 8.0 mph12.9 kmh - -
Humidity 26% 94% 19% 62%
Pressure 30.38 in1028.8 mb 30.50 in1032.8 mb 30.37 in1028.4 mb -
Hour Temp Dew Point Humidity Winds Wind Gusts Pressure Precip Precip Rate Daily Precip Total
04:50 PM 57.0°F13.9°C 22.4°F-5.3°C 26% 1.8 mph WSW2.9 kmh WSW 4.0 mph6.4 kmh 30.38 in1028.8 mb 0.00 in0.0 mm 0.00 in/hr0.0 mm/hr 0.00 in0.0 mm
04:40 PM 57.2°F14.0°C 22.6°F-5.2°C 26% 0.9 mph S1.4 kmh S 2.0 mph3.2 kmh 30.37 in1028.4 mb 0.00 in0.0 mm 0.00 in/hr0.0 mm/hr 0.00 in0.0 mm
04:30 PM 57.0°F13.9°C 19.5°F-6.9°C 23% 2.6 mph WSW4.2 kmh WSW 3.0 mph4.8 kmh 30.38 in1028.8 mb 0.00 in0.0 mm 0.00 in/hr0.0 mm/hr 0.00 in0.0 mm
04:20 PM 57.1°F13.9°C 22.5°F-5.3°C 26% 0.9 mph N1.4 kmh N 5.0 mph8.0 kmh 30.38 in1028.8 mb 0.00 in0.0 mm 0.00 in/hr0.0 mm/hr 0.00 in0.0 mm
04:10 PM 57.1°F13.9°C 20.6°F-6.3°C 24% 1.1 mph NNE1.8 kmh NNE 3.0 mph4.8 kmh 30.39 in1029.1 mb 0.00 in0.0 mm 0.00 in/hr0.0 mm/hr 0.00 in0.0 mm
04:00 PM 57.0°F13.9°C 19.5°F-6.9°C 23% 1.0 mph NNE1.6 kmh NNE 3.0 mph4.8 kmh 30.39 in1029.1 mb 0.00 in0.0 mm 0.00 in/hr0.0 mm/hr 0.00 in0.0 mm
03:50 PM 57.1°F13.9°C 18.6°F-7.4°C 22% 2.1 mph WSW3.4 kmh WSW 4.0 mph6.4 kmh 30.39 in1029.1 mb 0.00 in0.0 mm 0.00 in/hr0.0 mm/hr 0.00 in0.0 mm
03:40 PM 57.5°F14.2°C 20.0°F-6.7°C 23% 1.0 mph SW1.6 kmh SW 2.0 mph3.2 kmh 30.39 in1029.1 mb 0.00 in0.0 mm 0.00 in/hr0.0 mm/hr 0.00 in0.0 mm
03:30 PM 57.4°F14.1°C 19.8°F-6.8°C 23% 1.2 mph NNW1.9 kmh NNW 3.0 mph4.8 kmh 30.39 in1029.1 mb 0.00 in0.0 mm 0.00 in/hr0.0 mm/hr 0.00 in0.0 mm
03:20 PM 57.8°F14.3°C 17.0°F-8.3°C 20% 2.5 mph WSW4.0 kmh WSW 7.0 mph11.3 kmh 30.39 in1029.1 mb 0.00 in0.0 mm 0.00 in/hr0.0 mm/hr 0.00 in0.0 mm
03:10 PM 57.7°F14.3°C 20.1°F-6.6°C 23% 2.0 mph WNW3.2 kmh WNW 3.0 mph4.8 kmh 30.39 in1029.1 mb 0.00 in0.0 mm 0.00 in/hr0.0 mm/hr 0.00 in0.0 mm
03:00 PM 57.5°F14.2°C 16.7°F-8.5°C 20% 2.8 mph W4.5 kmh W 3.0 mph4.8 kmh 30.40 in1029.5 mb 0.00 in0.0 mm 0.00 in/hr0.0 mm/hr 0.00 in0.0 mm
02:50 PM 58.7°F14.8°C 20.9°F-6.2°C 23% 0.8 mph NE1.3 kmh NE 1.0 mph1.6 kmh 30.41 in1029.8 mb 0.00 in0.0 mm 0.00 in/hr0.0 mm/hr 0.00 in0.0 mm
02:40 PM 58.0°F14.4°C 17.1°F-8.3°C 20% 2.1 mph WNW3.4 kmh WNW 3.0 mph4.8 kmh 30.41 in1029.8 mb 0.00 in0.0 mm 0.00 in/hr0.0 mm/hr 0.00 in0.0 mm
02:30 PM 57.7°F14.3°C 18.0°F-7.8°C 21% 2.5 mph NNW4.0 kmh NNW 3.0 mph4.8 kmh 30.42 in1030.1 mb 0.00 in0.0 mm 0.00 in/hr0.0 mm/hr 0.00 in0.0 mm
02:20 PM 58.4°F14.7°C 19.6°F-6.9°C 22% 1.4 mph ESE2.3 kmh ESE 3.0 mph4.8 kmh 30.42 in1030.1 mb 0.00 in0.0 mm 0.00 in/hr0.0 mm/hr 0.00 in0.0 mm
02:10 PM 57.6°F14.2°C 19.0°F-7.2°C 22% 1.3 mph SW2.1 kmh SW 2.0 mph3.2 kmh 30.42 in1030.1 mb 0.00 in0.0 mm 0.00 in/hr0.0 mm/hr 0.00 in0.0 mm
02:00 PM 57.2°F14.0°C 15.2°F-9.3°C 19% 1.5 mph SW2.4 kmh SW 3.0 mph4.8 kmh 30.43 in1030.5 mb 0.00 in0.0 mm 0.00 in/hr0.0 mm/hr 0.00 in0.0 mm
01:50 PM 56.6°F13.7°C 17.0°F-8.3°C 21% 2.6 mph ESE4.2 kmh ESE 4.0 mph6.4 kmh 30.43 in1030.5 mb 0.00 in0.0 mm 0.00 in/hr0.0 mm/hr 0.00 in0.0 mm
01:40 PM 57.1°F13.9°C 21.5°F-5.8°C 25% 2.2 mph S3.5 kmh S 4.0 mph6.4 kmh 30.44 in1030.8 mb 0.00 in0.0 mm 0.00 in/hr0.0 mm/hr 0.00 in0.0 mm
01:30 PM 57.7°F14.3°C 21.1°F-6.1°C 24% 1.9 mph SSW3.1 kmh SSW 7.0 mph11.3 kmh 30.44 in1030.8 mb 0.00 in0.0 mm 0.00 in/hr0.0 mm/hr 0.00 in0.0 mm
01:20 PM 57.5°F14.2°C 22.8°F-5.1°C 26% 0.9 mph SSW1.4 kmh SSW 2.0 mph3.2 kmh 30.44 in1030.8 mb 0.00 in0.0 mm 0.00 in/hr0.0 mm/hr 0.00 in0.0 mm
01:10 PM 56.4°F13.6°C 21.0°F-6.1°C 25% 1.7 mph N2.7 kmh N 2.0 mph3.2 kmh 30.44 in1030.8 mb 0.00 in0.0 mm 0.00 in/hr0.0 mm/hr 0.00 in0.0 mm
01:00 PM 55.6°F13.1°C 21.2°F-6.0°C 26% 1.9 mph SSE3.1 kmh SSE 4.0 mph6.4 kmh 30.45 in1031.2 mb 0.00 in0.0 mm 0.00 in/hr0.0 mm/hr 0.00 in0.0 mm
12:50 PM 55.2°F12.9°C 20.0°F-6.7°C 25% 1.6 mph SE2.6 kmh SE 4.0 mph6.4 kmh 30.45 in1031.2 mb 0.00 in0.0 mm 0.00 in/hr0.0 mm/hr 0.00 in0.0 mm
12:40 PM 55.4°F13.0°C 22.8°F-5.1°C 28% 0.7 mph E1.1 kmh E 2.0 mph3.2 kmh 30.45 in1031.2 mb 0.00 in0.0 mm 0.00 in/hr0.0 mm/hr 0.00 in0.0 mm
12:30 PM 54.2°F12.3°C 20.0°F-6.7°C 26% 2.1 mph WNW3.4 kmh WNW 3.0 mph4.8 kmh 30.45 in1031.2 mb 0.00 in0.0 mm 0.00 in/hr0.0 mm/hr 0.00 in0.0 mm
12:20 PM 53.0°F11.7°C 18.9°F-7.3°C 26% 1.4 mph NE2.3 kmh NE 2.0 mph3.2 kmh 30.45 in1031.2 mb 0.00 in0.0 mm 0.00 in/hr0.0 mm/hr 0.00 in0.0 mm
12:10 PM 53.0°F11.7°C 19.0°F-7.2°C 26% 2.6 mph WSW4.2 kmh WSW 3.0 mph4.8 kmh 30.46 in1031.5 mb 0.00 in0.0 mm 0.00 in/hr0.0 mm/hr 0.00 in0.0 mm
12:00 PM 52.8°F11.6°C 22.2°F-5.4°C 30% 1.9 mph SW3.1 kmh SW 2.0 mph3.2 kmh 30.46 in1031.5 mb 0.00 in0.0 mm 0.00 in/hr0.0 mm/hr 0.00 in0.0 mm
11:50 AM 52.6°F11.4°C 22.8°F-5.1°C 31% 1.9 mph WSW3.1 kmh WSW 3.0 mph4.8 kmh 30.47 in1031.8 mb 0.00 in0.0 mm 0.00 in/hr0.0 mm/hr 0.00 in0.0 mm
11:40 AM 51.7°F10.9°C 21.2°F-6.0°C 30% 2.0 mph N3.2 kmh N 3.0 mph4.8 kmh 30.48 in1032.2 mb 0.00 in0.0 mm 0.00 in/hr0.0 mm/hr 0.00 in0.0 mm
11:30 AM 51.2°F10.7°C 18.3°F-7.6°C 27% 1.1 mph NW1.8 kmh NW 2.0 mph3.2 kmh 30.48 in1032.2 mb 0.00 in0.0 mm 0.00 in/hr0.0 mm/hr 0.00 in0.0 mm
11:20 AM 51.1°F10.6°C 21.5°F-5.8°C 31% 2.3 mph W3.7 kmh W 4.0 mph6.4 kmh 30.48 in1032.2 mb 0.00 in0.0 mm 0.00 in/hr0.0 mm/hr 0.00 in0.0 mm
11:10 AM 50.0°F10.0°C 19.7°F-6.8°C 30% 2.5 mph E4.0 kmh E 3.0 mph4.8 kmh 30.48 in1032.2 mb 0.00 in0.0 mm 0.00 in/hr0.0 mm/hr 0.00 in0.0 mm
11:00 AM 49.4°F9.7°C 19.2°F-7.1°C 30% 2.0 mph S3.2 kmh S 4.0 mph6.4 kmh 30.48 in1032.2 mb 0.00 in0.0 mm 0.00 in/hr0.0 mm/hr 0.00 in0.0 mm
10:50 AM 49.4°F9.7°C 20.0°F-6.7°C 31% 2.3 mph SW3.7 kmh SW 3.0 mph4.8 kmh 30.48 in1032.2 mb 0.00 in0.0 mm 0.00 in/hr0.0 mm/hr 0.00 in0.0 mm
10:40 AM 48.9°F9.4°C 19.5°F-6.9°C 31% 2.2 mph SE3.5 kmh SE 6.0 mph9.7 kmh 30.49 in1032.5 mb 0.00 in0.0 mm 0.00 in/hr0.0 mm/hr 0.00 in0.0 mm
10:30 AM 48.9°F9.4°C 20.3°F-6.5°C 32% 3.9 mph W6.3 kmh W 7.0 mph11.3 kmh 30.48 in1032.2 mb 0.00 in0.0 mm 0.00 in/hr0.0 mm/hr 0.00 in0.0 mm
10:20 AM 48.4°F9.1°C 19.1°F-7.2°C 31% 2.9 mph WSW4.7 kmh WSW 8.0 mph12.9 kmh 30.49 in1032.5 mb 0.00 in0.0 mm 0.00 in/hr0.0 mm/hr 0.00 in0.0 mm
10:10 AM 48.3°F9.1°C 22.5°F-5.3°C 36% 1.2 mph WSW1.9 kmh WSW 3.0 mph4.8 kmh 30.49 in1032.5 mb 0.00 in0.0 mm 0.00 in/hr0.0 mm/hr 0.00 in0.0 mm
10:00 AM 48.1°F8.9°C 27.7°F-2.4°C 45% 1.7 mph NW2.7 kmh NW 3.0 mph4.8 kmh 30.49 in1032.5 mb 0.00 in0.0 mm 0.00 in/hr0.0 mm/hr 0.00 in0.0 mm
09:50 AM 46.7°F8.2°C 21.1°F-6.1°C 36% 1.8 mph NW2.9 kmh NW 2.0 mph3.2 kmh 30.49 in1032.5 mb 0.00 in0.0 mm 0.00 in/hr0.0 mm/hr 0.00 in0.0 mm
09:40 AM 45.8°F7.7°C 22.8°F-5.1°C 40% 1.8 mph W2.9 kmh W 2.0 mph3.2 kmh 30.49 in1032.5 mb 0.00 in0.0 mm 0.00 in/hr0.0 mm/hr 0.00 in0.0 mm
09:30 AM 45.4°F7.4°C 22.4°F-5.3°C 40% 2.0 mph WSW3.2 kmh WSW 3.0 mph4.8 kmh 30.49 in1032.5 mb 0.00 in0.0 mm 0.00 in/hr0.0 mm/hr 0.00 in0.0 mm
09:20 AM 44.0°F6.7°C 24.5°F-4.2°C 46% 2.0 mph WSW3.2 kmh WSW 3.0 mph4.8 kmh 30.49 in1032.5 mb 0.00 in0.0 mm 0.00 in/hr0.0 mm/hr 0.00 in0.0 mm
09:10 AM 42.4°F5.8°C 30.7°F-0.7°C 63% Calm Calm 1.0 mph1.6 kmh 30.49 in1032.5 mb 0.00 in0.0 mm 0.00 in/hr0.0 mm/hr 0.00 in0.0 mm
09:00 AM 39.9°F4.4°C 30.9°F-0.6°C 70% 0.4 mph E0.6 kmh E 1.0 mph1.6 kmh 30.49 in1032.5 mb 0.00 in0.0 mm 0.00 in/hr0.0 mm/hr 0.00 in0.0 mm
08:50 AM 40.4°F4.7°C 26.3°F-3.2°C 57% 0.2 mph WNW0.3 kmh WNW 1.0 mph1.6 kmh 30.49 in1032.5 mb 0.00 in0.0 mm 0.00 in/hr0.0 mm/hr 0.00 in0.0 mm
08:40 AM 35.6°F2.0°C 31.5°F-0.3°C 85% 1.3 mph E2.1 kmh E 2.0 mph3.2 kmh 30.50 in1032.8 mb 0.00 in0.0 mm 0.00 in/hr0.0 mm/hr 0.00 in0.0 mm
08:30 AM 34.1°F1.2°C 30.7°F-0.7°C 87% 0.2 mph W0.3 kmh W -- 30.50 in1032.8 mb 0.00 in0.0 mm 0.00 in/hr0.0 mm/hr 0.00 in0.0 mm
08:20 AM 32.9°F0.5°C 30.3°F-0.9°C 90% 0.7 mph W1.1 kmh W 2.0 mph3.2 kmh 30.49 in1032.5 mb 0.00 in0.0 mm 0.00 in/hr0.0 mm/hr 0.00 in0.0 mm
08:10 AM 31.7°F-0.2°C 29.4°F-1.4°C 91% 0.1 mph W0.2 kmh W 1.0 mph1.6 kmh 30.49 in1032.5 mb 0.00 in0.0 mm 0.00 in/hr0.0 mm/hr 0.00 in0.0 mm
08:00 AM 30.6°F-0.8°C 28.5°F-1.9°C 92% Calm Calm -- 30.50 in1032.8 mb 0.00 in0.0 mm 0.00 in/hr0.0 mm/hr 0.00 in0.0 mm
07:50 AM 29.9°F-1.2°C 28.1°F-2.2°C 93% 0.3 mph W0.5 kmh W 1.0 mph1.6 kmh 30.50 in1032.8 mb 0.00 in0.0 mm 0.00 in/hr0.0 mm/hr 0.00 in0.0 mm
07:40 AM 29.3°F-1.5°C 27.5°F-2.5°C 93% Calm Calm 1.0 mph1.6 kmh 30.50 in1032.8 mb 0.00 in0.0 mm 0.00 in/hr0.0 mm/hr 0.00 in0.0 mm
07:30 AM 29.0°F-1.7°C 27.2°F-2.7°C 93% 0.2 mph W0.3 kmh W 1.0 mph1.6 kmh 30.50 in1032.8 mb 0.00 in0.0 mm 0.00 in/hr0.0 mm/hr 0.00 in0.0 mm
07:20 AM 28.7°F-1.8°C 26.9°F-2.8°C 93% Calm Calm 1.0 mph1.6 kmh 30.50 in1032.8 mb 0.00 in0.0 mm 0.00 in/hr0.0 mm/hr 0.00 in0.0 mm
07:10 AM 28.6°F-1.9°C 26.8°F-2.9°C 93% Calm Calm -- 30.50 in1032.8 mb 0.00 in0.0 mm 0.00 in/hr0.0 mm/hr 0.00 in0.0 mm
07:00 AM 28.5°F-1.9°C 26.7°F-2.9°C 93% 0.4 mph W0.6 kmh W 1.0 mph1.6 kmh 30.50 in1032.8 mb 0.00 in0.0 mm 0.00 in/hr0.0 mm/hr 0.00 in0.0 mm
06:50 AM 28.3°F-2.1°C 26.5°F-3.1°C 93% 0.1 mph W0.2 kmh W 1.0 mph1.6 kmh 30.50 in1032.8 mb 0.00 in0.0 mm 0.00 in/hr0.0 mm/hr 0.00 in0.0 mm
06:40 AM 28.4°F-2.0°C 26.6°F-3.0°C 93% 0.2 mph W0.3 kmh W 1.0 mph1.6 kmh 30.50 in1032.8 mb 0.00 in0.0 mm 0.00 in/hr0.0 mm/hr 0.00 in0.0 mm
06:30 AM 28.2°F-2.1°C 26.4°F-3.1°C 93% 0.7 mph W1.1 kmh W 1.0 mph1.6 kmh 30.49 in1032.5 mb 0.00 in0.0 mm 0.00 in/hr0.0 mm/hr 0.00 in0.0 mm
06:20 AM 28.2°F-2.1°C 26.4°F-3.1°C 93% Calm Calm -- 30.49 in1032.5 mb 0.00 in0.0 mm 0.00 in/hr0.0 mm/hr 0.00 in0.0 mm
06:10 AM 28.2°F-2.1°C 26.4°F-3.1°C 93% Calm Calm 1.0 mph1.6 kmh 30.48 in1032.2 mb 0.00 in0.0 mm 0.00 in/hr0.0 mm/hr 0.00 in0.0 mm
06:00 AM 28.3°F-2.1°C 26.8°F-2.9°C 94% 0.3 mph W0.5 kmh W 1.0 mph1.6 kmh 30.48 in1032.2 mb 0.00 in0.0 mm 0.00 in/hr0.0 mm/hr 0.00 in0.0 mm
05:50 AM 28.0°F-2.2°C 26.3°F-3.2°C 93% Calm Calm -- 30.47 in1031.8 mb 0.00 in0.0 mm 0.00 in/hr0.0 mm/hr 0.00 in0.0 mm
05:40 AM 28.3°F-2.1°C 26.5°F-3.1°C 93% Calm Calm -- 30.48 in1032.2 mb 0.00 in0.0 mm 0.00 in/hr0.0 mm/hr 0.00 in0.0 mm
05:30 AM 28.4°F-2.0°C 26.7°F-2.9°C 93% 0.4 mph W0.6 kmh W 1.0 mph1.6 kmh 30.48 in1032.2 mb 0.00 in0.0 mm 0.00 in/hr0.0 mm/hr 0.00 in0.0 mm
05:20 AM 28.6°F-1.9°C 26.8°F-2.9°C 93% 0.4 mph W0.6 kmh W 1.0 mph1.6 kmh 30.47 in1031.8 mb 0.00 in0.0 mm 0.00 in/hr0.0 mm/hr 0.00 in0.0 mm
05:10 AM 28.7°F-1.8°C 26.9°F-2.8°C 93% 0.2 mph W0.3 kmh W 1.0 mph1.6 kmh 30.47 in1031.8 mb 0.00 in0.0 mm 0.00 in/hr0.0 mm/hr 0.00 in0.0 mm
05:00 AM 28.7°F-1.8°C 26.9°F-2.8°C 93% 0.5 mph W0.8 kmh W 1.0 mph1.6 kmh 30.47 in1031.8 mb 0.00 in0.0 mm 0.00 in/hr0.0 mm/hr 0.00 in0.0 mm
04:50 AM 28.7°F-1.8°C 26.9°F-2.8°C 93% Calm Calm -- 30.46 in1031.5 mb 0.00 in0.0 mm 0.00 in/hr0.0 mm/hr 0.00 in0.0 mm
04:40 AM 28.9°F-1.7°C 27.1°F-2.7°C 93% 0.2 mph W0.3 kmh W 1.0 mph1.6 kmh 30.46 in1031.5 mb 0.00 in0.0 mm 0.00 in/hr0.0 mm/hr 0.00 in0.0 mm
04:30 AM 28.8°F-1.8°C 27.1°F-2.7°C 93% 0.3 mph W0.5 kmh W 1.0 mph1.6 kmh 30.46 in1031.5 mb 0.00 in0.0 mm 0.00 in/hr0.0 mm/hr 0.00 in0.0 mm
04:20 AM 29.1°F-1.6°C 27.3°F-2.6°C 93% 0.5 mph W0.8 kmh W 1.0 mph1.6 kmh 30.45 in1031.2 mb 0.00 in0.0 mm 0.00 in/hr0.0 mm/hr 0.00 in0.0 mm
04:10 AM 29.0°F-1.7°C 27.2°F-2.7°C 93% 0.1 mph W0.2 kmh W 1.0 mph1.6 kmh 30.45 in1031.2 mb 0.00 in0.0 mm 0.00 in/hr0.0 mm/hr 0.00 in0.0 mm
04:00 AM 29.2°F-1.6°C 27.4°F-2.6°C 93% 0.2 mph W0.3 kmh W 1.0 mph1.6 kmh 30.44 in1030.8 mb 0.00 in0.0 mm 0.00 in/hr0.0 mm/hr 0.00 in0.0 mm
03:50 AM 29.2°F-1.6°C 27.4°F-2.6°C 93% 0.3 mph W0.5 kmh W 1.0 mph1.6 kmh 30.44 in1030.8 mb 0.00 in0.0 mm 0.00 in/hr0.0 mm/hr 0.00 in0.0 mm
03:40 AM 29.4°F-1.4°C 27.6°F-2.4°C 93% 0.4 mph W0.6 kmh W 1.0 mph1.6 kmh 30.44 in1030.8 mb 0.00 in0.0 mm 0.00 in/hr0.0 mm/hr 0.00 in0.0 mm
03:30 AM 29.5°F-1.4°C 27.7°F-2.4°C 93% 0.3 mph W0.5 kmh W 1.0 mph1.6 kmh 30.44 in1030.8 mb 0.00 in0.0 mm 0.00 in/hr0.0 mm/hr 0.00 in0.0 mm
03:20 AM 29.6°F-1.3°C 27.8°F-2.3°C 93% 0.4 mph W0.6 kmh W 1.0 mph1.6 kmh 30.44 in1030.8 mb 0.00 in0.0 mm 0.00 in/hr0.0 mm/hr 0.00 in0.0 mm
03:10 AM 29.6°F-1.3°C 27.6°F-2.4°C 92% Calm Calm -- 30.44 in1030.8 mb 0.00 in0.0 mm 0.00 in/hr0.0 mm/hr 0.00 in0.0 mm
03:00 AM 29.9°F-1.2°C 27.9°F-2.3°C 92% 0.2 mph W0.3 kmh W 1.0 mph1.6 kmh 30.44 in1030.8 mb 0.00 in0.0 mm 0.00 in/hr0.0 mm/hr 0.00 in0.0 mm
02:50 AM 30.0°F-1.1°C 28.2°F-2.1°C 93% 0.4 mph W0.6 kmh W 1.0 mph1.6 kmh 30.44 in1030.8 mb 0.00 in0.0 mm 0.00 in/hr0.0 mm/hr 0.00 in0.0 mm
02:40 AM 29.9°F-1.2°C 28.1°F-2.2°C 93% 0.1 mph W0.2 kmh W 1.0 mph1.6 kmh 30.44 in1030.8 mb 0.00 in0.0 mm 0.00 in/hr0.0 mm/hr 0.00 in0.0 mm
02:30 AM 29.8°F-1.2°C 27.8°F-2.3°C 92% 0.3 mph W0.5 kmh W 1.0 mph1.6 kmh 30.44 in1030.8 mb 0.00 in0.0 mm 0.00 in/hr0.0 mm/hr 0.00 in0.0 mm
02:20 AM 30.1°F-1.1°C 28.1°F-2.2°C 92% Calm Calm -- 30.44 in1030.8 mb 0.00 in0.0 mm 0.00 in/hr0.0 mm/hr 0.00 in0.0 mm
02:10 AM 30.0°F-1.1°C 28.0°F-2.2°C 92% Calm Calm 1.0 mph1.6 kmh 30.44 in1030.8 mb 0.00 in0.0 mm 0.00 in/hr0.0 mm/hr 0.00 in0.0 mm
02:00 AM 30.1°F-1.1°C 28.1°F-2.2°C 92% Calm Calm 1.0 mph1.6 kmh 30.44 in1030.8 mb 0.00 in0.0 mm 0.00 in/hr0.0 mm/hr 0.00 in0.0 mm
01:50 AM 30.3°F-0.9°C 28.3°F-2.1°C 92% Calm Calm -- 30.44 in1030.8 mb 0.00 in0.0 mm 0.00 in/hr0.0 mm/hr 0.00 in0.0 mm
01:40 AM 30.5°F-0.8°C 28.2°F-2.1°C 91% 0.2 mph W0.3 kmh W 1.0 mph1.6 kmh 30.43 in1030.5 mb 0.00 in0.0 mm 0.00 in/hr0.0 mm/hr 0.00 in0.0 mm
01:30 AM 30.8°F-0.7°C 28.5°F-1.9°C 91% 0.2 mph W0.3 kmh W 1.0 mph1.6 kmh 30.43 in1030.5 mb 0.00 in0.0 mm 0.00 in/hr0.0 mm/hr 0.00 in0.0 mm
01:20 AM 30.8°F-0.7°C 28.5°F-1.9°C 91% Calm Calm -- 30.43 in1030.5 mb 0.00 in0.0 mm 0.00 in/hr0.0 mm/hr 0.00 in0.0 mm
01:10 AM 31.2°F-0.4°C 28.6°F-1.9°C 90% 0.2 mph W0.3 kmh W 1.0 mph1.6 kmh 30.43 in1030.5 mb 0.00 in0.0 mm 0.00 in/hr0.0 mm/hr 0.00 in0.0 mm
01:00 AM 31.4°F-0.3°C 29.1°F-1.6°C 91% 0.4 mph W0.6 kmh W 1.0 mph1.6 kmh 30.42 in1030.1 mb 0.00 in0.0 mm 0.00 in/hr0.0 mm/hr 0.00 in0.0 mm
12:50 AM 31.7°F-0.2°C 29.1°F-1.6°C 90% Calm Calm 1.0 mph1.6 kmh 30.42 in1030.1 mb 0.00 in0.0 mm 0.00 in/hr0.0 mm/hr 0.00 in0.0 mm
12:40 AM 31.7°F-0.2°C 29.1°F-1.6°C 90% Calm Calm -- 30.42 in1030.1 mb 0.00 in0.0 mm 0.00 in/hr0.0 mm/hr 0.00 in0.0 mm
12:30 AM 32.3°F0.2°C 29.4°F-1.4°C 89% 0.3 mph W0.5 kmh W 1.0 mph1.6 kmh 30.41 in1029.8 mb 0.00 in0.0 mm 0.00 in/hr0.0 mm/hr 0.00 in0.0 mm
12:20 AM 32.6°F0.3°C 29.7°F-1.3°C 89% 0.2 mph W0.3 kmh W 1.0 mph1.6 kmh 30.41 in1029.8 mb 0.00 in0.0 mm 0.00 in/hr0.0 mm/hr 0.00 in0.0 mm
12:10 AM 32.8°F0.4°C 29.9°F-1.2°C 89% Calm Calm -- 30.40 in1029.5 mb 0.00 in0.0 mm 0.00 in/hr0.0 mm/hr 0.00 in0.0 mm
12:00 AM 33.2°F0.7°C 30.1°F-1.1°C 88% 0.3 mph W0.5 kmh W 1.0 mph1.6 kmh 30.40 in1029.5 mb 0.00 in0.0 mm 0.00 in/hr0.0 mm/hr 0.00 in0.0 mm